Zhaotong, China
Current Conditions -  °F | °C
As of 8:00 AM on Saturday 20 Dec 2014 (Local Time) from ZPPP Reporting Station
Moderate Fog Moderate Fog  
Wind Chill: 25°   Ceiling: 100
Heat Index: 34°   Visibility: 0.18mi
Dew Point: 34°   Wind: 11mph
Humidity: 100%   Direction: 220°SW
Pressure: 30.24"   Gusts: NA
Location:  27.32°N, 103.72°E
Report Text: ZPPP 200000Z 22005MPS 0300 R22/0250N R21/0250N FGBKN001OVC006 01/01 Q1024 BECMG TL0250 0700
Loading
Personal Weather Stations






























Interactive Weather Map New forecast layout! Learn more

10-Day Weather Forecast

Advertisements
Track Severe Weather on mobile